createdAt,value
2023-03-04T00:08:09.175Z,102514.81
2023-03-04T00:18:30.637Z,102514.81
2023-03-04T00:28:52.033Z,102509.63
2023-03-04T00:39:13.686Z,102496.72
2023-03-04T00:49:35.083Z,102501.06
2023-03-04T00:59:56.457Z,102494.16
2023-03-04T01:10:17.938Z,102491.63
2023-03-04T01:20:39.382Z,102478.75
2023-03-04T01:31:00.806Z,102455.63
2023-03-04T01:41:26.214Z,102451.34
2023-03-04T01:51:54.630Z,102441.06
2023-03-04T02:02:16.023Z,102432.44
2023-03-04T02:12:37.477Z,102419.50
2023-03-04T02:22:58.914Z,102412.66
2023-03-04T02:33:20.373Z,102404.94
2023-03-04T02:43:41.786Z,102398.91
2023-03-04T02:54:03.625Z,102392.06
2023-03-04T03:04:25.723Z,102382.59
2023-03-04T03:14:47.070Z,102379.97
2023-03-04T03:25:09.307Z,102361.09
2023-03-04T03:35:30.758Z,102359.41
2023-03-04T03:45:52.262Z,102349.03
2023-03-04T03:56:13.676Z,102345.56
2023-03-04T04:06:35.126Z,102344.69
2023-03-04T04:16:56.523Z,102330.94
2023-03-04T04:27:17.941Z,102320.56
2023-03-04T04:37:39.283Z,102318.81
2023-03-04T04:48:03.852Z,102317.13
2023-03-04T04:58:25.229Z,102325.63
2023-03-04T05:08:46.678Z,102321.28
2023-03-04T05:19:08.216Z,102321.19
2023-03-04T05:29:29.568Z,102344.25
2023-03-04T05:39:50.911Z,102330.50
2023-03-04T05:50:12.328Z,102325.38
2023-03-04T06:00:33.887Z,102314.22
2023-03-04T06:10:56.408Z,102321.09
2023-03-04T06:21:17.791Z,102321.13
2023-03-04T06:31:41.721Z,102311.66
2023-03-04T06:42:03.163Z,102319.47
2023-03-04T06:52:24.655Z,102328.94
2023-03-04T07:02:46.058Z,102344.44
2023-03-04T07:13:07.454Z,102345.41
2023-03-04T07:23:28.821Z,102336.03
2023-03-04T07:33:50.862Z,102342.13
2023-03-04T07:44:13.437Z,102355.00
2023-03-04T07:54:34.877Z,102356.75
2023-03-04T08:04:56.247Z,102367.06
2023-03-04T08:15:17.689Z,102362.78
2023-03-04T08:25:40.370Z,102360.28
2023-03-04T08:36:01.768Z,102367.22
2023-03-04T08:46:23.230Z,102379.28
2023-03-04T08:56:44.651Z,102375.03
2023-03-04T09:07:06.116Z,102385.44
2023-03-04T09:17:27.504Z,102381.03
2023-03-04T09:27:49.072Z,102388.59
2023-03-04T09:38:12.815Z,102392.78
2023-03-04T09:48:39.708Z,102393.78
2023-03-04T09:59:36.755Z,102398.16
2023-03-04T10:10:07.180Z,102403.06
2023-03-04T10:20:32.892Z,102415.84
2023-03-04T10:31:23.703Z,102413.44
2023-03-04T10:41:46.276Z,102405.03
2023-03-04T10:52:27.221Z,102400.84
2023-03-04T11:02:49.279Z,102408.56
2023-03-04T11:13:18.216Z,102395.09
2023-03-04T11:23:43.209Z,102382.34
2023-03-04T11:34:04.552Z,102368.81
2023-03-04T11:44:25.921Z,102362.16
2023-03-04T11:55:06.430Z,102354.63
2023-03-04T12:05:35.083Z,102334.03
2023-03-04T12:16:02.519Z,102340.09
2023-03-04T12:26:27.004Z,102342.44
2023-03-04T12:37:07.902Z,102340.78
2023-03-04T12:47:52.714Z,102321.19
2023-03-04T12:58:22.765Z,102307.53
2023-03-04T13:09:02.550Z,102304.06
2023-03-04T13:19:42.844Z,102311.56
2023-03-04T13:30:24.262Z,102313.25
2023-03-04T13:41:05.834Z,102300.47
2023-03-04T13:51:47.453Z,102305.63
2023-03-04T14:12:50.035Z,102290.06
2023-03-04T14:23:26.676Z,102308.91
2023-03-04T14:33:54.245Z,102319.69
2023-03-04T14:44:15.585Z,102304.25
2023-03-04T14:54:36.982Z,102282.91
2023-03-04T15:05:16.185Z,102284.66
2023-03-04T15:15:39.888Z,102283.03
2023-03-04T15:26:02.702Z,102280.44
2023-03-04T15:36:24.349Z,102273.56
2023-03-04T15:46:45.715Z,102265.75
2023-03-04T15:57:09.136Z,102258.94
2023-03-04T16:07:30.728Z,102296.47
2023-03-04T16:17:52.304Z,102289.06
2023-03-04T16:28:14.009Z,102268.47
2023-03-04T16:38:35.407Z,102275.25
2023-03-04T16:48:56.782Z,102270.03
2023-03-04T16:59:18.174Z,102258.88
2023-03-04T17:09:39.680Z,102270.03
2023-03-04T17:20:10.032Z,102267.34
2023-03-04T17:30:31.475Z,102259.44
2023-03-04T17:40:52.998Z,102272.22
2023-03-04T17:51:14.860Z,102277.13
2023-03-04T18:01:36.269Z,102287.31
2023-03-04T18:11:57.691Z,102285.53
2023-03-04T18:22:19.110Z,102286.28
2023-03-04T18:32:51.726Z,102269.97
2023-03-04T18:43:13.740Z,102263.94
2023-03-04T18:53:35.283Z,102267.28
2023-03-04T19:03:59.089Z,102260.59
2023-03-04T19:14:20.527Z,102268.28
2023-03-04T19:24:41.939Z,102278.53
2023-03-04T19:35:03.400Z,102274.13
2023-03-04T19:45:25.494Z,102281.78
2023-03-04T19:55:49.060Z,102272.38
2023-03-04T20:06:10.420Z,102267.94
2023-03-04T20:16:32.320Z,102261.91
2023-03-04T20:26:53.786Z,102260.13
2023-03-04T20:37:15.177Z,102257.56
2023-03-04T20:47:39.496Z,102260.88
2023-03-04T20:58:01.006Z,102262.47
2023-03-04T21:08:22.413Z,102250.59
2023-03-04T21:18:44.305Z,102233.47
2023-03-04T21:29:05.762Z,102222.28
2023-03-04T21:39:27.239Z,102212.00
2023-03-04T21:49:48.831Z,102213.75
2023-03-04T22:00:10.665Z,102203.50
2023-03-04T22:10:32.035Z,102204.28
2023-03-04T22:20:59.160Z,102192.34
2023-03-04T22:31:29.671Z,102188.00
2023-03-04T22:41:51.044Z,102176.09
2023-03-04T22:52:12.401Z,102172.59
2023-03-04T23:02:33.833Z,102153.75
2023-03-04T23:12:55.218Z,102153.66
2023-03-04T23:23:16.595Z,102150.16
2023-03-04T23:33:39.490Z,102138.16
2023-03-04T23:44:01.442Z,102134.59
2023-03-04T23:54:22.827Z,102124.19
